Terminal Aerodrome Forecast
Issued by NWS

Home | Current Version | Previous Version | Text Only | Print | Product List | Glossary On
Versions: 1 2 3 4 5 6 7 8 9 10 11 12 13
000
FTAK31 PAJN 221700
TAFAPG
TAF
PAPG 221730Z 2218/2318 06007KT P6SM SCT150
     FM230200 06005KT P6SM SCT100
     FM230600 VRB03KT P6SM BKN100
     FM231700 06005KT P6SM SCT050 BKN100
      AMD LTD TO CLD VIS AND WIND 2306/2315=

USA.gov is the U.S. government's official web portal to all federal, state and local government web resources and services.